sensor_id;sensor_type;location;lat;lon;timestamp;temperature;humidity
69206;SHT30;56319;48.920;2.332;2024-02-28T11:12:55;11.09;59.06
69206;SHT30;56319;48.920;2.332;2024-02-28T11:15:25;11.09;59.07
69206;SHT30;56319;48.920;2.332;2024-02-28T11:17:53;11.10;59.05
69206;SHT30;56319;48.920;2.332;2024-02-28T11:20:22;11.10;59.04
69206;SHT30;56319;48.920;2.332;2024-02-28T11:22:48;11.10;59.04
69206;SHT30;56319;48.920;2.332;2024-02-28T11:25:22;11.10;59.05
69206;SHT30;56319;48.920;2.332;2024-02-28T11:27:48;11.10;59.04
69206;SHT30;56319;48.920;2.332;2024-02-28T11:30:14;11.12;59.04
69206;SHT30;56319;48.920;2.332;2024-02-28T11:32:41;11.12;59.01
69206;SHT30;56319;48.920;2.332;2024-02-28T11:35:08;11.13;58.98
69206;SHT30;56319;48.920;2.332;2024-02-28T11:37:34;11.13;59.01
69206;SHT30;56319;48.920;2.332;2024-02-28T11:40:00;11.15;58.98
69206;SHT30;56319;48.920;2.332;2024-02-28T11:42:26;11.12;58.97
69206;SHT30;56319;48.920;2.332;2024-02-28T11:44:53;11.12;59.00
69206;SHT30;56319;48.920;2.332;2024-02-28T11:47:22;11.15;58.97
69206;SHT30;56319;48.920;2.332;2024-02-28T11:49:48;11.15;58.99
69206;SHT30;56319;48.920;2.332;2024-02-28T11:52:14;11.13;59.00
69206;SHT30;56319;48.920;2.332;2024-02-28T11:54:40;11.13;59.00
69206;SHT30;56319;48.920;2.332;2024-02-28T11:57:07;11.15;59.01
69206;SHT30;56319;48.920;2.332;2024-02-28T11:59:36;11.16;58.98
69206;SHT30;56319;48.920;2.332;2024-02-28T12:02:12;11.15;59.00
69206;SHT30;56319;48.920;2.332;2024-02-28T12:04:40;11.16;59.00
69206;SHT30;56319;48.920;2.332;2024-02-28T12:07:06;11.13;59.02
69206;SHT30;56319;48.920;2.332;2024-02-28T12:09:32;11.15;59.02
69206;SHT30;56319;48.920;2.332;2024-02-28T12:12:01;11.15;59.02
69206;SHT30;56319;48.920;2.332;2024-02-28T12:14:27;11.15;58.98
69206;SHT30;56319;48.920;2.332;2024-02-28T12:16:53;11.15;59.02
69206;SHT30;56319;48.920;2.332;2024-02-28T12:19:19;11.16;59.06
69206;SHT30;56319;48.920;2.332;2024-02-28T12:21:46;11.13;59.05
69206;SHT30;56319;48.920;2.332;2024-02-28T12:24:13;11.15;59.13
69206;SHT30;56319;48.920;2.332;2024-02-28T12:26:39;11.15;59.10
69206;SHT30;56319;48.920;2.332;2024-02-28T12:29:06;11.17;59.12
69206;SHT30;56319;48.920;2.332;2024-02-28T12:31:32;11.24;59.10
69206;SHT30;56319;48.920;2.332;2024-02-28T12:33:58;11.24;59.10
69206;SHT30;56319;48.920;2.332;2024-02-28T12:36:24;11.27;59.03
69206;SHT30;56319;48.920;2.332;2024-02-28T12:38:50;11.34;59.00
69206;SHT30;56319;48.920;2.332;2024-02-28T12:41:16;11.37;58.96
69206;SHT30;56319;48.920;2.332;2024-02-28T12:43:43;11.44;58.90
69206;SHT30;56319;48.920;2.332;2024-02-28T12:46:08;11.53;58.85
69206;SHT30;56319;48.920;2.332;2024-02-28T12:48:38;11.58;58.76
69206;SHT30;56319;48.920;2.332;2024-02-28T12:51:04;11.68;58.63
69206;SHT30;56319;48.920;2.332;2024-02-28T12:53:31;11.77;58.54
69206;SHT30;56319;48.920;2.332;2024-02-28T12:55:58;11.81;58.44
69206;SHT30;56319;48.920;2.332;2024-02-28T12:58:47;11.93;58.24
69206;SHT30;56319;48.920;2.332;2024-02-28T13:01:22;11.98;58.17
69206;SHT30;56319;48.920;2.332;2024-02-28T13:03:48;12.07;58.00
69206;SHT30;56319;48.920;2.332;2024-02-28T13:06:14;12.15;57.94
69206;SHT30;56319;48.920;2.332;2024-02-28T13:08:40;12.17;57.80
69206;SHT30;56319;48.920;2.332;2024-02-28T13:11:06;12.24;57.72
69206;SHT30;56319;48.920;2.332;2024-02-28T13:13:33;12.29;57.67
69206;SHT30;56319;48.920;2.332;2024-02-28T13:15:59;12.33;57.60
69206;SHT30;56319;48.920;2.332;2024-02-28T13:18:25;12.33;57.52
69206;SHT30;56319;48.920;2.332;2024-02-28T13:20:51;12.37;57.48
69206;SHT30;56319;48.920;2.332;2024-02-28T13:23:18;12.40;57.46
69206;SHT30;56319;48.920;2.332;2024-02-28T13:25:44;12.40;57.37
69206;SHT30;56319;48.920;2.332;2024-02-28T13:28:10;12.40;57.38
69206;SHT30;56319;48.920;2.332;2024-02-28T13:30:36;12.41;57.33
69206;SHT30;56319;48.920;2.332;2024-02-28T13:33:07;12.41;57.32
69206;SHT30;56319;48.920;2.332;2024-02-28T13:35:52;12.43;57.33
69206;SHT30;56319;48.920;2.332;2024-02-28T13:38:27;12.45;57.26
69206;SHT30;56319;48.920;2.332;2024-02-28T13:45:00;12.47;57.20
69206;SHT30;56319;48.920;2.332;2024-02-28T13:51:03;12.47;57.15
69206;SHT30;56319;48.920;2.332;2024-02-28T13:53:37;12.47;57.15
69206;SHT30;56319;48.920;2.332;2024-02-28T13:56:03;12.48;57.15
69206;SHT30;56319;48.920;2.332;2024-02-28T13:58:34;12.50;57.16
69206;SHT30;56319;48.920;2.332;2024-02-28T14:01:01;12.45;57.14
69206;SHT30;56319;48.920;2.332;2024-02-28T14:10:02;12.43;57.19
69206;SHT30;56319;48.920;2.332;2024-02-28T14:12:34;12.43;57.18
69206;SHT30;56319;48.920;2.332;2024-02-28T14:15:04;12.41;57.25
69206;SHT30;56319;48.920;2.332;2024-02-28T14:21:39;12.43;57.29
69206;SHT30;56319;48.920;2.332;2024-02-28T14:24:37;12.43;57.26
69206;SHT30;56319;48.920;2.332;2024-02-28T14:33:55;12.34;57.40
69206;SHT30;56319;48.920;2.332;2024-02-28T14:43:10;12.32;57.50
69206;SHT30;56319;48.920;2.332;2024-02-28T14:45:42;12.29;57.50
69206;SHT30;56319;48.920;2.332;2024-02-28T14:48:17;12.29;57.55
69206;SHT30;56319;48.920;2.332;2024-02-28T14:51:00;12.24;57.55
69206;SHT30;56319;48.920;2.332;2024-02-28T14:53:52;12.27;57.55
69206;SHT30;56319;48.920;2.332;2024-02-28T15:06:18;12.26;57.63
69206;SHT30;56319;48.920;2.332;2024-02-28T15:08:48;12.23;57.71
69206;SHT30;56319;48.920;2.332;2024-02-28T15:11:22;12.23;57.67
69206;SHT30;56319;48.920;2.332;2024-02-28T15:16:40;12.20;57.71
69206;SHT30;56319;48.920;2.332;2024-02-28T15:23:01;12.19;57.79
69206;SHT30;56319;48.920;2.332;2024-02-28T15:25:42;12.22;57.84
69206;SHT30;56319;48.920;2.332;2024-02-28T15:28:19;12.20;57.86
69206;SHT30;56319;48.920;2.332;2024-02-28T15:31:02;12.23;57.79
69206;SHT30;56319;48.920;2.332;2024-02-28T15:33:56;12.22;57.81
69206;SHT30;56319;48.920;2.332;2024-02-28T15:36:33;12.20;57.83
69206;SHT30;56319;48.920;2.332;2024-02-28T15:39:19;12.23;57.83
69206;SHT30;56319;48.920;2.332;2024-02-28T15:41:53;12.24;57.88
69206;SHT30;56319;48.920;2.332;2024-02-28T15:44:26;12.26;57.87
69206;SHT30;56319;48.920;2.332;2024-02-28T15:46:58;12.26;57.82
69206;SHT30;56319;48.920;2.332;2024-02-28T15:49:29;12.23;57.80
69206;SHT30;56319;48.920;2.332;2024-02-28T15:52:02;12.24;57.82
69206;SHT30;56319;48.920;2.332;2024-02-28T15:54:31;12.24;57.87
69206;SHT30;56319;48.920;2.332;2024-02-28T15:57:02;12.27;57.88
69206;SHT30;56319;48.920;2.332;2024-02-28T15:59:32;12.22;57.89
69206;SHT30;56319;48.920;2.332;2024-02-28T16:02:06;12.22;57.92
69206;SHT30;56319;48.920;2.332;2024-02-28T16:04:57;12.24;57.92
69206;SHT30;56319;48.920;2.332;2024-02-28T16:07:30;12.23;57.93
69206;SHT30;56319;48.920;2.332;2024-02-28T16:09:59;12.22;58.02
69206;SHT30;56319;48.920;2.332;2024-02-28T16:12:28;12.17;58.00
69206;SHT30;56319;48.920;2.332;2024-02-28T16:15:25;12.17;58.07
69206;SHT30;56319;48.920;2.332;2024-02-28T16:18:25;12.20;58.05
69206;SHT30;56319;48.920;2.332;2024-02-28T16:20:56;12.13;58.06
69206;SHT30;56319;48.920;2.332;2024-02-28T16:23:29;12.13;58.09
69206;SHT30;56319;48.920;2.332;2024-02-28T16:29:39;12.07;58.17
69206;SHT30;56319;48.920;2.332;2024-02-28T16:32:22;12.09;58.27
69206;SHT30;56319;48.920;2.332;2024-02-28T16:37:56;12.02;58.37
69206;SHT30;56319;48.920;2.332;2024-02-28T16:40:40;12.03;58.35
69206;SHT30;56319;48.920;2.332;2024-02-28T16:43:14;12.03;58.45
69206;SHT30;56319;48.920;2.332;2024-02-28T16:46:07;12.02;58.47
69206;SHT30;56319;48.920;2.332;2024-02-28T16:48:41;11.98;58.51
69206;SHT30;56319;48.920;2.332;2024-02-28T16:51:16;11.98;58.51
69206;SHT30;56319;48.920;2.332;2024-02-28T16:53:47;11.96;58.59
69206;SHT30;56319;48.920;2.332;2024-02-28T16:59:12;11.96;58.66
69206;SHT30;56319;48.920;2.332;2024-02-28T17:01:42;11.95;58.64
69206;SHT30;56319;48.920;2.332;2024-02-28T17:04:21;11.95;58.68
69206;SHT30;56319;48.920;2.332;2024-02-28T17:10:23;11.90;58.74
69206;SHT30;56319;48.920;2.332;2024-02-28T17:13:06;11.89;58.87
69206;SHT30;56319;48.920;2.332;2024-02-28T17:18:48;11.86;58.92
69206;SHT30;56319;48.920;2.332;2024-02-28T17:21:37;11.86;58.98
69206;SHT30;56319;48.920;2.332;2024-02-28T17:24:09;11.86;59.02
69206;SHT30;56319;48.920;2.332;2024-02-28T17:26:35;11.85;59.04
69206;SHT30;56319;48.920;2.332;2024-02-28T17:29:12;11.82;58.99
69206;SHT30;56319;48.920;2.332;2024-02-28T17:31:41;11.82;59.03
69206;SHT30;56319;48.920;2.332;2024-02-28T17:34:18;11.82;59.11
69206;SHT30;56319;48.920;2.332;2024-02-28T17:37:10;11.82;59.17
69206;SHT30;56319;48.920;2.332;2024-02-28T17:39:48;11.82;59.23
69206;SHT30;56319;48.920;2.332;2024-02-28T17:43:10;11.79;59.29
69206;SHT30;56319;48.920;2.332;2024-02-28T17:45:41;11.81;59.32
69206;SHT30;56319;48.920;2.332;2024-02-28T17:48:19;11.79;59.30
69206;SHT30;56319;48.920;2.332;2024-02-28T17:51:02;11.79;59.29
69206;SHT30;56319;48.920;2.332;2024-02-28T17:53:41;11.77;59.39
69206;SHT30;56319;48.920;2.332;2024-02-28T17:56:10;11.79;59.39
69206;SHT30;56319;48.920;2.332;2024-02-28T17:58:39;11.74;59.53
69206;SHT30;56319;48.920;2.332;2024-02-28T18:01:27;11.77;59.46
69206;SHT30;56319;48.920;2.332;2024-02-28T18:03:55;11.75;59.40
69206;SHT30;56319;48.920;2.332;2024-02-28T18:06:31;11.74;59.38
69206;SHT30;56319;48.920;2.332;2024-02-28T18:08:57;11.74;59.53
69206;SHT30;56319;48.920;2.332;2024-02-28T18:11:26;11.74;59.59
69206;SHT30;56319;48.920;2.332;2024-02-28T18:13:52;11.74;59.51
69206;SHT30;56319;48.920;2.332;2024-02-28T18:16:17;11.72;59.58
69206;SHT30;56319;48.920;2.332;2024-02-28T18:18:45;11.72;59.57
69206;SHT30;56319;48.920;2.332;2024-02-28T18:21:11;11.74;59.68
69206;SHT30;56319;48.920;2.332;2024-02-28T18:24:00;11.71;59.62
69206;SHT30;56319;48.920;2.332;2024-02-28T18:26:32;11.72;59.61
69206;SHT30;56319;48.920;2.332;2024-02-28T18:29:01;11.72;59.66
69206;SHT30;56319;48.920;2.332;2024-02-28T18:31:35;11.71;59.73
69206;SHT30;56319;48.920;2.332;2024-02-28T18:34:01;11.72;59.82
69206;SHT30;56319;48.920;2.332;2024-02-28T18:36:33;11.71;59.83
69206;SHT30;56319;48.920;2.332;2024-02-28T18:39:07;11.71;59.79
69206;SHT30;56319;48.920;2.332;2024-02-28T18:41:37;11.70;59.84
69206;SHT30;56319;48.920;2.332;2024-02-28T18:47:30;11.70;59.89
69206;SHT30;56319;48.920;2.332;2024-02-28T18:50:19;11.68;59.96
69206;SHT30;56319;48.920;2.332;2024-02-28T18:52:51;11.68;60.05
69206;SHT30;56319;48.920;2.332;2024-02-28T18:55:17;11.70;60.04
69206;SHT30;56319;48.920;2.332;2024-02-28T18:58:00;11.67;60.11
69206;SHT30;56319;48.920;2.332;2024-02-28T19:00:35;11.70;60.12
69206;SHT30;56319;48.920;2.332;2024-02-28T19:03:06;11.67;60.13
69206;SHT30;56319;48.920;2.332;2024-02-28T19:05:39;11.67;60.16
69206;SHT30;56319;48.920;2.332;2024-02-28T19:08:08;11.68;60.15
69206;SHT30;56319;48.920;2.332;2024-02-28T19:11:04;11.65;60.22
69206;SHT30;56319;48.920;2.332;2024-02-28T19:13:33;11.67;60.08
69206;SHT30;56319;48.920;2.332;2024-02-28T19:16:00;11.65;60.15
69206;SHT30;56319;48.920;2.332;2024-02-28T19:18:26;11.65;60.15
69206;SHT30;56319;48.920;2.332;2024-02-28T19:20:52;11.64;60.17
69206;SHT30;56319;48.920;2.332;2024-02-28T19:23:18;11.65;60.21
69206;SHT30;56319;48.920;2.332;2024-02-28T19:25:46;11.64;60.28
69206;SHT30;56319;48.920;2.332;2024-02-28T19:28:15;11.64;60.26
69206;SHT30;56319;48.920;2.332;2024-02-28T19:30:44;11.64;60.22
69206;SHT30;56319;48.920;2.332;2024-02-28T19:33:10;11.64;60.32
69206;SHT30;56319;48.920;2.332;2024-02-28T19:35:41;11.64;60.40
69206;SHT30;56319;48.920;2.332;2024-02-28T19:38:09;11.64;60.36
69206;SHT30;56319;48.920;2.332;2024-02-28T19:40:35;11.64;60.33
69206;SHT30;56319;48.920;2.332;2024-02-28T19:43:05;11.64;60.35
69206;SHT30;56319;48.920;2.332;2024-02-28T19:45:31;11.61;60.35
69206;SHT30;56319;48.920;2.332;2024-02-28T19:48:00;11.61;60.44
69206;SHT30;56319;48.920;2.332;2024-02-28T19:50:26;11.60;60.45
69206;SHT30;56319;48.920;2.332;2024-02-28T19:52:58;11.61;60.40
69206;SHT30;56319;48.920;2.332;2024-02-28T19:55:27;11.62;60.49
69206;SHT30;56319;48.920;2.332;2024-02-28T19:57:55;11.60;60.54
69206;SHT30;56319;48.920;2.332;2024-02-28T20:00:21;11.60;60.55
69206;SHT30;56319;48.920;2.332;2024-02-28T20:02:47;11.61;60.58
69206;SHT30;56319;48.920;2.332;2024-02-28T20:05:13;11.58;60.53
69206;SHT30;56319;48.920;2.332;2024-02-28T20:08:06;11.60;60.57
69206;SHT30;56319;48.920;2.332;2024-02-28T20:10:47;11.60;60.62
69206;SHT30;56319;48.920;2.332;2024-02-28T20:13:37;11.57;60.64
69206;SHT30;56319;48.920;2.332;2024-02-28T20:16:04;11.57;60.63
69206;SHT30;56319;48.920;2.332;2024-02-28T20:18:37;11.57;60.62
69206;SHT30;56319;48.920;2.332;2024-02-28T20:21:08;11.58;60.70
69206;SHT30;56319;48.920;2.332;2024-02-28T20:23:50;11.55;60.69
69206;SHT30;56319;48.920;2.332;2024-02-28T20:26:35;11.57;60.72
69206;SHT30;56319;48.920;2.332;2024-02-28T20:29:07;11.57;60.72
69206;SHT30;56319;48.920;2.332;2024-02-28T20:31:47;11.55;60.85
69206;SHT30;56319;48.920;2.332;2024-02-28T20:34:19;11.55;60.80
69206;SHT30;56319;48.920;2.332;2024-02-28T20:36:51;11.54;60.77
69206;SHT30;56319;48.920;2.332;2024-02-28T20:39:18;11.55;60.84
69206;SHT30;56319;48.920;2.332;2024-02-28T20:41:47;11.55;60.84
69206;SHT30;56319;48.920;2.332;2024-02-28T20:44:13;11.54;60.87
69206;SHT30;56319;48.920;2.332;2024-02-28T20:46:42;11.55;60.85
69206;SHT30;56319;48.920;2.332;2024-02-28T20:49:08;11.55;60.89
69206;SHT30;56319;48.920;2.332;2024-02-28T20:51:42;11.54;61.13
69206;SHT30;56319;48.920;2.332;2024-02-28T20:54:19;11.54;60.99
69206;SHT30;56319;48.920;2.332;2024-02-28T20:56:54;11.54;61.12
69206;SHT30;56319;48.920;2.332;2024-02-28T21:00:01;11.53;60.95
69206;SHT30;56319;48.920;2.332;2024-02-28T21:02:40;11.55;61.00
69206;SHT30;56319;48.920;2.332;2024-02-28T21:05:17;11.53;61.05
69206;SHT30;56319;48.920;2.332;2024-02-28T21:07:57;11.54;61.14
69206;SHT30;56319;48.920;2.332;2024-02-28T21:10:32;11.51;61.10
69206;SHT30;56319;48.920;2.332;2024-02-28T21:13:01;11.51;61.18
69206;SHT30;56319;48.920;2.332;2024-02-28T21:15:45;11.54;61.11
69206;SHT30;56319;48.920;2.332;2024-02-28T21:18:17;11.51;61.11
69206;SHT30;56319;48.920;2.332;2024-02-28T21:20:46;11.53;61.08
69206;SHT30;56319;48.920;2.332;2024-02-28T21:23:25;11.51;61.31
69206;SHT30;56319;48.920;2.332;2024-02-28T21:25:59;11.51;61.21
69206;SHT30;56319;48.920;2.332;2024-02-28T21:28:32;11.53;61.67
69206;SHT30;56319;48.920;2.332;2024-02-28T21:31:05;11.54;61.22
69206;SHT30;56319;48.920;2.332;2024-02-28T21:33:45;11.51;61.26
69206;SHT30;56319;48.920;2.332;2024-02-28T21:36:35;11.50;61.25
69206;SHT30;56319;48.920;2.332;2024-02-28T21:39:14;11.51;61.29
69206;SHT30;56319;48.920;2.332;2024-02-28T21:41:56;11.50;61.32
69206;SHT30;56319;48.920;2.332;2024-02-28T21:44:33;11.51;61.36
69206;SHT30;56319;48.920;2.332;2024-02-28T21:47:06;11.53;61.33
69206;SHT30;56319;48.920;2.332;2024-02-28T21:49:45;11.48;61.33
69206;SHT30;56319;48.920;2.332;2024-02-28T21:52:22;11.50;61.38
69206;SHT30;56319;48.920;2.332;2024-02-28T21:54:50;11.50;61.53
69206;SHT30;56319;48.920;2.332;2024-02-28T21:57:18;11.48;61.39
69206;SHT30;56319;48.920;2.332;2024-02-28T22:00:05;11.48;61.87
69206;SHT30;56319;48.920;2.332;2024-02-28T22:03:07;11.50;61.50
69206;SHT30;56319;48.920;2.332;2024-02-28T22:05:39;11.48;61.53
69206;SHT30;56319;48.920;2.332;2024-02-28T22:11:28;11.48;61.66
69206;SHT30;56319;48.920;2.332;2024-02-28T22:14:09;11.53;61.56
69206;SHT30;56319;48.920;2.332;2024-02-28T22:17:37;11.50;61.61
69206;SHT30;56319;48.920;2.332;2024-02-28T22:20:32;11.47;61.70
69206;SHT30;56319;48.920;2.332;2024-02-28T22:23:01;11.50;61.78
69206;SHT30;56319;48.920;2.332;2024-02-28T22:25:36;11.48;61.63
69206;SHT30;56319;48.920;2.332;2024-02-28T22:28:08;11.48;61.69
69206;SHT30;56319;48.920;2.332;2024-02-28T22:34:09;11.48;61.78
69206;SHT30;56319;48.920;2.332;2024-02-28T22:36:41;11.45;61.71
69206;SHT30;56319;48.920;2.332;2024-02-28T22:39:10;11.48;61.70
69206;SHT30;56319;48.920;2.332;2024-02-28T22:44:22;11.48;61.93
69206;SHT30;56319;48.920;2.332;2024-02-28T22:46:57;11.48;61.84
69206;SHT30;56319;48.920;2.332;2024-02-28T22:49:34;11.48;61.83
69206;SHT30;56319;48.920;2.332;2024-02-28T22:52:00;11.47;61.83
69206;SHT30;56319;48.920;2.332;2024-02-28T22:54:31;11.48;61.81
69206;SHT30;56319;48.920;2.332;2024-02-28T22:57:00;11.45;61.82
69206;SHT30;56319;48.920;2.332;2024-02-28T22:59:28;11.47;62.06
69206;SHT30;56319;48.920;2.332;2024-02-28T23:01:55;11.48;62.00
69206;SHT30;56319;48.920;2.332;2024-02-28T23:04:24;11.48;61.94
69206;SHT30;56319;48.920;2.332;2024-02-28T23:10:29;11.50;61.97
69206;SHT30;56319;48.920;2.332;2024-02-28T23:13:02;11.47;61.94
69206;SHT30;56319;48.920;2.332;2024-02-28T23:15:46;11.45;61.99
69206;SHT30;56319;48.920;2.332;2024-02-28T23:18:15;11.48;61.95
69206;SHT30;56319;48.920;2.332;2024-02-28T23:20:45;11.47;61.99
69206;SHT30;56319;48.920;2.332;2024-02-28T23:23:14;11.48;61.95
69206;SHT30;56319;48.920;2.332;2024-02-28T23:25:42;11.48;62.01
69206;SHT30;56319;48.920;2.332;2024-02-28T23:28:12;11.48;61.98
69206;SHT30;56319;48.920;2.332;2024-02-28T23:30:59;11.48;62.17
69206;SHT30;56319;48.920;2.332;2024-02-28T23:33:40;11.47;62.23
69206;SHT30;56319;48.920;2.332;2024-02-28T23:36:06;11.50;62.30
69206;SHT30;56319;48.920;2.332;2024-02-28T23:38:32;11.45;62.27
69206;SHT30;56319;48.920;2.332;2024-02-28T23:41:01;11.50;62.03
69206;SHT30;56319;48.920;2.332;2024-02-28T23:43:28;11.44;62.24
69206;SHT30;56319;48.920;2.332;2024-02-28T23:45:57;11.45;62.16
69206;SHT30;56319;48.920;2.332;2024-02-28T23:48:35;11.48;62.36
69206;SHT30;56319;48.920;2.332;2024-02-28T23:51:06;11.47;62.57
69206;SHT30;56319;48.920;2.332;2024-02-28T23:57:08;11.48;62.14
69206;SHT30;56319;48.920;2.332;2024-02-28T23:59:39;11.48;62.46
